createdAt,value
2022-12-15T00:00:09.348Z,-3.30
2022-12-15T00:02:54.780Z,-3.20
2022-12-15T00:05:40.521Z,-3.20
2022-12-15T00:08:27.304Z,-3.20
2022-12-15T00:11:13.606Z,-3.10
2022-12-15T00:13:59.132Z,-3.20
2022-12-15T00:16:44.644Z,-3.10
2022-12-15T00:19:30.236Z,-3.10
2022-12-15T00:22:15.717Z,-3.30
2022-12-15T00:25:01.109Z,-3.20
2022-12-15T00:27:46.677Z,-3.20
2022-12-15T00:30:32.013Z,-3.10
2022-12-15T00:33:17.338Z,-3.10
2022-12-15T00:36:02.611Z,-3.20
2022-12-15T00:38:44.689Z,-3.20
2022-12-15T00:41:17.060Z,-3.20
2022-12-15T00:43:44.776Z,-3.20
2022-12-15T00:46:30.651Z,-3.10
2022-12-15T00:48:57.609Z,-3.10
2022-12-15T00:51:43.674Z,-3.10
2022-12-15T00:54:29.923Z,-3.10
2022-12-15T00:57:15.825Z,-3.10
2022-12-15T01:00:01.565Z,-3.00
2022-12-15T01:02:47.339Z,-3.00
2022-12-15T01:05:32.911Z,-2.90
2022-12-15T01:08:18.870Z,-3.00
2022-12-15T01:11:04.571Z,-2.90
2022-12-15T01:13:50.143Z,-3.00
2022-12-15T01:16:36.134Z,-3.00
2022-12-15T01:19:21.626Z,-2.90
2022-12-15T01:21:49.880Z,-2.80
2022-12-15T01:24:16.944Z,-2.80
2022-12-15T01:26:43.794Z,-2.90
2022-12-15T01:29:10.680Z,-2.90
2022-12-15T01:31:37.624Z,-2.90
2022-12-15T01:34:04.900Z,-2.90
2022-12-15T01:36:31.776Z,-2.80
2022-12-15T01:38:58.616Z,-2.80
2022-12-15T01:41:25.530Z,-2.90
2022-12-15T01:43:52.536Z,-2.90
2022-12-15T01:46:24.707Z,-2.90
2022-12-15T01:49:15.749Z,-2.80
2022-12-15T01:51:50.201Z,-2.80
2022-12-15T01:54:20.054Z,-2.70
2022-12-15T01:56:55.116Z,-2.80
2022-12-15T01:59:29.109Z,-2.80
2022-12-15T02:01:56.167Z,-2.70
2022-12-15T02:04:24.534Z,-2.70
2022-12-15T02:06:53.138Z,-2.70
2022-12-15T02:09:22.827Z,-2.80
2022-12-15T02:12:08.326Z,-2.70
2022-12-15T02:14:53.656Z,-2.70
2022-12-15T02:17:52.775Z,-2.60
2022-12-15T02:20:37.842Z,-2.60
2022-12-15T02:23:42.444Z,-2.60
2022-12-15T02:26:24.122Z,-2.60
2022-12-15T02:29:29.879Z,-2.60
2022-12-15T02:32:21.164Z,-2.60
2022-12-15T02:35:05.820Z,-2.60
2022-12-15T02:37:36.428Z,-2.70
2022-12-15T02:40:04.999Z,-2.60
2022-12-15T02:42:33.850Z,-2.50
2022-12-15T02:45:05.956Z,-2.80
2022-12-15T02:48:14.553Z,-2.80
2022-12-15T02:50:50.041Z,-2.60
2022-12-15T02:53:45.995Z,-2.70
2022-12-15T02:56:24.987Z,-2.70
2022-12-15T02:59:14.527Z,-2.70
2022-12-15T03:01:51.792Z,-2.60
2022-12-15T03:04:20.259Z,-2.60
2022-12-15T03:07:00.610Z,-2.50
2022-12-15T03:09:28.332Z,-2.50
2022-12-15T03:11:55.209Z,-2.40
2022-12-15T03:14:22.379Z,-2.30
2022-12-15T03:16:49.625Z,-2.40
2022-12-15T03:19:16.537Z,-2.30
2022-12-15T03:21:43.585Z,-2.20
2022-12-15T03:24:10.588Z,-2.30
2022-12-15T03:26:37.458Z,-2.30
2022-12-15T03:29:04.490Z,-2.40
2022-12-15T03:31:31.756Z,-2.50
2022-12-15T03:33:58.797Z,-2.40
2022-12-15T03:36:25.691Z,-2.30
2022-12-15T03:38:52.610Z,-2.40
2022-12-15T03:41:20.073Z,-2.30
2022-12-15T03:43:49.804Z,-2.30
2022-12-15T03:46:17.001Z,-2.30
2022-12-15T03:48:44.059Z,-2.30
2022-12-15T03:51:11.071Z,-2.30
2022-12-15T03:53:38.215Z,-1.60
2022-12-15T03:56:05.344Z,-2.30
2022-12-15T03:58:32.193Z,-2.30
2022-12-15T04:00:59.192Z,-2.30
2022-12-15T04:03:26.133Z,-2.20
2022-12-15T04:05:53.013Z,-2.10
2022-12-15T04:08:26.766Z,-2.20
2022-12-15T04:10:53.727Z,-2.20
2022-12-15T04:13:20.611Z,-2.10
2022-12-15T04:15:47.538Z,-2.10
2022-12-15T04:18:14.496Z,-2.10
2022-12-15T04:20:41.700Z,-2.10
2022-12-15T04:23:09.235Z,-2.10
2022-12-15T04:25:55.808Z,-2.20
2022-12-15T04:28:41.840Z,-2.10
2022-12-15T04:31:30.053Z,-2.00
2022-12-15T04:34:20.082Z,-2.10
2022-12-15T04:37:07.593Z,-2.20
2022-12-15T04:40:06.951Z,-2.20
2022-12-15T04:42:54.380Z,-2.00
2022-12-15T04:45:43.337Z,-2.20
2022-12-15T04:48:29.615Z,-2.20
2022-12-15T04:51:15.221Z,-2.10
2022-12-15T04:54:02.796Z,-2.00
2022-12-15T04:56:49.993Z,-2.00
2022-12-15T04:59:35.944Z,-2.10
2022-12-15T05:02:21.689Z,-2.20
2022-12-15T05:05:07.291Z,-2.10
2022-12-15T05:07:52.668Z,-2.10
2022-12-15T05:10:38.050Z,-2.10
2022-12-15T05:13:25.250Z,-2.10
2022-12-15T05:16:10.564Z,-2.10
2022-12-15T05:18:56.384Z,-2.10
2022-12-15T05:21:41.762Z,-2.20
2022-12-15T05:24:27.458Z,-2.10
2022-12-15T05:27:12.825Z,-2.20
2022-12-15T05:29:58.213Z,-2.20
2022-12-15T05:32:25.086Z,-2.20
2022-12-15T05:34:51.934Z,-2.20
2022-12-15T05:37:19.448Z,-2.20
2022-12-15T05:39:46.302Z,-2.20
2022-12-15T05:42:13.175Z,-2.20
2022-12-15T05:44:40.803Z,-2.10
2022-12-15T05:47:09.272Z,-2.20
2022-12-15T05:49:36.176Z,-2.20
2022-12-15T05:52:03.454Z,-2.10
2022-12-15T05:54:30.424Z,-2.20
2022-12-15T05:56:57.306Z,-2.10
2022-12-15T05:59:24.206Z,-2.20
2022-12-15T06:01:51.222Z,-2.20
2022-12-15T06:04:18.311Z,-2.20
2022-12-15T06:06:45.377Z,-2.20
2022-12-15T06:09:12.349Z,-2.20
2022-12-15T06:11:39.247Z,-2.20
2022-12-15T06:14:06.328Z,-2.20
2022-12-15T06:16:38.290Z,-2.20
2022-12-15T06:19:08.856Z,-2.30
2022-12-15T06:21:36.350Z,-2.30
2022-12-15T06:24:04.965Z,-2.20
2022-12-15T06:26:34.646Z,-2.30
2022-12-15T06:29:03.204Z,-2.30
2022-12-15T06:31:31.914Z,-2.30
2022-12-15T06:34:02.066Z,-2.30
2022-12-15T06:36:31.061Z,-2.30
2022-12-15T06:39:04.423Z,-2.30
2022-12-15T06:41:32.291Z,-2.30
2022-12-15T06:44:00.371Z,-2.30
2022-12-15T06:46:29.619Z,-2.30
2022-12-15T06:48:57.074Z,-2.30
2022-12-15T06:51:24.874Z,-2.30
2022-12-15T06:53:55.633Z,-2.30
2022-12-15T06:56:34.029Z,-2.30
2022-12-15T06:59:02.359Z,-2.30
2022-12-15T07:01:30.027Z,-2.30
2022-12-15T07:04:00.203Z,-2.30
2022-12-15T07:06:28.747Z,-2.30
2022-12-15T07:08:56.865Z,-2.30
2022-12-15T07:11:24.390Z,-2.20
2022-12-15T07:13:52.671Z,-2.30
2022-12-15T07:16:20.584Z,-2.20
2022-12-15T07:18:47.524Z,-2.30
2022-12-15T07:21:14.546Z,-2.30
2022-12-15T07:23:57.615Z,-2.30
2022-12-15T07:26:25.537Z,-2.30
2022-12-15T07:28:53.827Z,-2.20
2022-12-15T07:31:21.879Z,-2.20
2022-12-15T07:33:49.570Z,-2.20
2022-12-15T07:36:16.528Z,-2.20
2022-12-15T07:38:49.896Z,-2.20
2022-12-15T07:41:18.189Z,-2.30
2022-12-15T07:43:45.948Z,-2.90
2022-12-15T07:46:12.881Z,-2.20
2022-12-15T07:48:39.854Z,-2.20
2022-12-15T07:51:12.413Z,-2.20
2022-12-15T07:53:44.412Z,-2.20
2022-12-15T07:56:11.323Z,-2.30
2022-12-15T07:58:38.854Z,-2.30
2022-12-15T08:01:08.386Z,-2.30
2022-12-15T08:03:36.672Z,-2.30
2022-12-15T08:06:07.984Z,-2.30
2022-12-15T08:08:35.844Z,-2.20
2022-12-15T08:11:08.098Z,-2.20
2022-12-15T08:14:01.987Z,-2.20
2022-12-15T08:16:22.600Z,-2.20
2022-12-15T08:18:49.536Z,-2.20
2022-12-15T08:21:16.589Z,-1.70
2022-12-15T08:23:43.555Z,-2.20
2022-12-15T08:26:13.881Z,-2.20
2022-12-15T08:28:41.617Z,-2.20
2022-12-15T08:31:20.630Z,-2.20
2022-12-15T08:33:48.837Z,-2.20
2022-12-15T08:36:17.645Z,-2.10
2022-12-15T08:38:46.449Z,-2.20
2022-12-15T08:41:27.180Z,-2.10
2022-12-15T08:43:55.430Z,-2.10
2022-12-15T08:46:25.849Z,-2.20
2022-12-15T08:48:53.382Z,-2.20
2022-12-15T08:51:21.884Z,-2.10
2022-12-15T08:53:49.339Z,-2.20
2022-12-15T08:56:19.798Z,-2.10
2022-12-15T08:58:47.885Z,-2.10
2022-12-15T09:01:24.100Z,-2.10
2022-12-15T09:03:55.851Z,-2.10
2022-12-15T09:06:28.776Z,-2.00
2022-12-15T09:09:00.229Z,-2.10
2022-12-15T09:11:28.914Z,-2.10
2022-12-15T09:13:56.140Z,-2.10
2022-12-15T09:16:23.796Z,-2.10
2022-12-15T09:18:53.381Z,-2.10
2022-12-15T09:21:23.153Z,-1.90
2022-12-15T09:23:52.185Z,-1.90
2022-12-15T09:26:21.549Z,-2.00
2022-12-15T09:28:50.649Z,-2.00
2022-12-15T09:31:23.566Z,-2.10
2022-12-15T09:33:55.295Z,-2.00
2022-12-15T09:36:22.899Z,-2.10
2022-12-15T09:38:50.883Z,-2.00
2022-12-15T09:41:23.813Z,-2.00
2022-12-15T09:43:56.634Z,-1.90
2022-12-15T09:46:27.697Z,-1.90
2022-12-15T09:48:57.754Z,-1.90
2022-12-15T09:51:34.042Z,-1.90
2022-12-15T09:54:01.434Z,-1.80
2022-12-15T09:56:55.982Z,-1.80
2022-12-15T09:59:38.071Z,-2.00
2022-12-15T10:02:33.153Z,-2.00
2022-12-15T10:05:11.922Z,-2.00
2022-12-15T10:07:46.627Z,-2.00
2022-12-15T10:10:23.313Z,-2.00
2022-12-15T10:15:53.367Z,-2.00
2022-12-15T10:18:23.520Z,-2.00
2022-12-15T10:20:54.400Z,-1.90
2022-12-15T10:23:21.530Z,-2.00
2022-12-15T10:25:59.968Z,-1.90
2022-12-15T10:28:51.044Z,-1.90
2022-12-15T10:31:36.721Z,-2.00
2022-12-15T10:34:15.853Z,-2.00
2022-12-15T10:36:50.932Z,-2.00
2022-12-15T10:39:17.898Z,-1.90
2022-12-15T10:41:44.811Z,-1.90
2022-12-15T10:47:20.816Z,-1.90
2022-12-15T10:49:48.478Z,-1.90
2022-12-15T10:52:27.454Z,-1.80
2022-12-15T10:54:55.740Z,-1.80
2022-12-15T10:57:27.903Z,-1.90
2022-12-15T11:00:28.393Z,-1.80
2022-12-15T11:02:55.991Z,-1.70
2022-12-15T11:05:23.852Z,-1.80
2022-12-15T11:08:13.986Z,-1.80
2022-12-15T11:11:34.385Z,-1.70
2022-12-15T11:14:10.964Z,-1.70
2022-12-15T11:16:53.553Z,-1.60
2022-12-15T11:19:36.514Z,-1.60
2022-12-15T11:22:50.891Z,-1.60
2022-12-15T11:25:42.480Z,-1.50
2022-12-15T11:28:17.860Z,-1.50
2022-12-15T11:31:24.690Z,-1.60
2022-12-15T11:33:55.123Z,-1.60
2022-12-15T11:36:43.720Z,-1.60
2022-12-15T11:39:47.016Z,-1.40
2022-12-15T11:42:29.062Z,-1.50
2022-12-15T11:45:19.941Z,-1.60
2022-12-15T11:47:52.484Z,-1.60
2022-12-15T11:50:45.620Z,-1.50
2022-12-15T11:53:27.410Z,-1.50
2022-12-15T11:56:18.302Z,-1.50
2022-12-15T11:59:05.401Z,-1.50
2022-12-15T12:02:03.439Z,-1.50
2022-12-15T12:04:44.851Z,-1.50
2022-12-15T12:07:41.987Z,-1.60
2022-12-15T12:10:42.836Z,-1.40
2022-12-15T12:13:24.059Z,-1.40
2022-12-15T12:16:09.352Z,-1.50
2022-12-15T12:18:50.515Z,-1.50
2022-12-15T12:21:23.739Z,-1.60
2022-12-15T12:24:00.544Z,-1.70
2022-12-15T12:26:41.195Z,-1.70
2022-12-15T12:29:15.856Z,-1.70
2022-12-15T12:34:51.198Z,-1.60
2022-12-15T12:37:39.774Z,-3.00
2022-12-15T12:40:22.233Z,-1.60
2022-12-15T12:42:57.667Z,-1.60
2022-12-15T12:45:37.131Z,-1.60
2022-12-15T12:48:12.943Z,-1.60
2022-12-15T12:50:39.858Z,-1.60
2022-12-15T12:53:23.925Z,-1.70
2022-12-15T12:55:50.864Z,-1.70
2022-12-15T12:58:41.684Z,-1.70
2022-12-15T13:01:13.088Z,-1.70
2022-12-15T13:03:42.533Z,-1.70
2022-12-15T13:06:33.842Z,-1.60
2022-12-15T13:09:23.899Z,-1.70
2022-12-15T13:11:53.484Z,-1.60
2022-12-15T13:14:36.018Z,-1.70
2022-12-15T13:17:27.669Z,-1.70
2022-12-15T13:20:01.432Z,-1.80
2022-12-15T13:22:40.383Z,-1.80
2022-12-15T13:25:38.762Z,-1.70
2022-12-15T13:28:36.141Z,-1.70
2022-12-15T13:31:18.986Z,-1.70
2022-12-15T13:33:54.579Z,-1.70
2022-12-15T13:36:39.795Z,-1.70
2022-12-15T13:39:12.835Z,-1.70
2022-12-15T13:42:23.862Z,-1.70
2022-12-15T13:44:51.559Z,-1.80
2022-12-15T13:47:30.147Z,-1.80
2022-12-15T13:50:13.136Z,-1.80
2022-12-15T13:55:55.769Z,-1.80
2022-12-15T13:58:24.797Z,-1.90
2022-12-15T14:00:56.347Z,-1.90
2022-12-15T14:03:24.265Z,-1.90
2022-12-15T14:05:54.639Z,-1.90
2022-12-15T14:08:23.877Z,-1.90
2022-12-15T14:10:56.010Z,-1.90
2022-12-15T14:13:30.392Z,-1.90
2022-12-15T14:16:14.868Z,-2.00
2022-12-15T14:18:42.856Z,-2.00
2022-12-15T14:21:30.476Z,-2.00
2022-12-15T14:24:37.116Z,-2.00
2022-12-15T14:26:48.948Z,-2.00
2022-12-15T14:29:17.932Z,-2.00
2022-12-15T14:31:57.854Z,-2.10
2022-12-15T14:34:30.141Z,-2.10
2022-12-15T14:37:02.438Z,-2.10
2022-12-15T14:39:39.731Z,-2.10
2022-12-15T14:42:15.221Z,-2.10
2022-12-15T14:44:49.943Z,-2.10
2022-12-15T14:47:27.091Z,-2.10
2022-12-15T14:49:55.931Z,-2.10
2022-12-15T14:52:39.484Z,-2.10
2022-12-15T14:55:21.637Z,-2.10
2022-12-15T14:57:52.076Z,-2.20
2022-12-15T15:00:34.015Z,-2.20
2022-12-15T15:03:07.113Z,-1.60
2022-12-15T15:03:10.065Z,-1.80
2022-12-15T15:03:12.026Z,-2.00
2022-12-15T15:03:38.385Z,-2.20
2022-12-15T15:06:14.899Z,-2.20
2022-12-15T15:08:52.923Z,-2.20
2022-12-15T15:11:23.478Z,-2.10
2022-12-15T15:13:56.150Z,-2.20
2022-12-15T15:16:23.518Z,-2.30
2022-12-15T15:18:53.581Z,-2.30
2022-12-15T15:21:29.748Z,-2.30
2022-12-15T15:23:59.257Z,-2.30
2022-12-15T15:26:27.383Z,-2.30
2022-12-15T15:28:55.152Z,-2.30
2022-12-15T15:31:24.799Z,-2.10
2022-12-15T15:33:52.895Z,-2.10
2022-12-15T15:36:20.325Z,-2.10
2022-12-15T15:38:47.759Z,-2.20
2022-12-15T15:41:18.459Z,-2.30
2022-12-15T15:43:46.323Z,-2.20
2022-12-15T15:46:22.260Z,-2.30
2022-12-15T15:48:58.985Z,-2.30
2022-12-15T15:51:27.400Z,-2.20
2022-12-15T15:53:58.983Z,-2.30
2022-12-15T15:56:28.333Z,-2.30
2022-12-15T15:58:55.200Z,-2.30
2022-12-15T16:01:22.499Z,-2.40
2022-12-15T16:03:49.967Z,-2.30
2022-12-15T16:06:20.718Z,-2.30
2022-12-15T16:08:52.587Z,-2.30
2022-12-15T16:11:21.388Z,-2.20
2022-12-15T16:13:48.793Z,-2.30
2022-12-15T16:16:19.574Z,-2.30
2022-12-15T16:18:46.539Z,-2.40
2022-12-15T16:21:15.721Z,-2.30
2022-12-15T16:23:47.084Z,-2.30
2022-12-15T16:26:25.199Z,-2.30
2022-12-15T16:28:52.128Z,-2.30
2022-12-15T16:31:32.970Z,-2.30
2022-12-15T16:34:05.019Z,-2.20
2022-12-15T16:36:32.908Z,-2.20
2022-12-15T16:38:59.883Z,-2.30
2022-12-15T16:41:27.887Z,-2.30
2022-12-15T16:43:54.889Z,-2.40
2022-12-15T16:46:21.906Z,-2.40
2022-12-15T16:48:49.201Z,-2.40
2022-12-15T16:51:40.243Z,-2.40
2022-12-15T16:54:08.059Z,-2.50
2022-12-15T16:56:34.975Z,-2.40
2022-12-15T16:59:31.367Z,-2.50
2022-12-15T17:01:49.788Z,-2.30
2022-12-15T17:04:16.793Z,-2.40
2022-12-15T17:06:43.907Z,-2.50
2022-12-15T17:09:19.083Z,-2.30
2022-12-15T17:11:46.124Z,-2.30
2022-12-15T17:14:13.404Z,-2.40
2022-12-15T17:16:40.334Z,-2.40
2022-12-15T17:19:07.187Z,-2.40
2022-12-15T17:21:41.085Z,-2.40
2022-12-15T17:24:13.874Z,-2.30
2022-12-15T17:26:42.390Z,-2.10
2022-12-15T17:29:15.854Z,-2.20
2022-12-15T17:31:42.841Z,-2.20
2022-12-15T17:34:30.168Z,-2.30
2022-12-15T17:36:59.389Z,-2.40
2022-12-15T17:39:27.375Z,-2.30
2022-12-15T17:42:02.807Z,-2.30
2022-12-15T17:44:37.886Z,-2.20
2022-12-15T17:47:07.735Z,-2.30
2022-12-15T17:49:38.659Z,-2.40
2022-12-15T17:52:20.412Z,-2.60
2022-12-15T17:54:47.416Z,-2.60
2022-12-15T17:57:14.226Z,-2.60
2022-12-15T17:59:41.216Z,-2.70
2022-12-15T18:02:13.189Z,-2.70
2022-12-15T18:04:41.254Z,-2.70
2022-12-15T18:07:19.862Z,-2.60
2022-12-15T18:09:47.820Z,-2.60
2022-12-15T18:12:26.929Z,-2.60
2022-12-15T18:14:54.899Z,-2.60
2022-12-15T18:17:22.168Z,-2.60
2022-12-15T18:19:49.433Z,-2.70
2022-12-15T18:22:22.742Z,-2.70
2022-12-15T18:24:52.188Z,-2.70
2022-12-15T18:27:24.610Z,-2.70
2022-12-15T18:29:51.839Z,-2.80
2022-12-15T18:32:20.167Z,-2.80
2022-12-15T18:34:47.064Z,-2.70
2022-12-15T18:37:18.614Z,-2.70
2022-12-15T18:39:46.229Z,-2.70
2022-12-15T18:42:20.291Z,-2.70
2022-12-15T18:44:50.166Z,-2.80
2022-12-15T18:47:22.379Z,-2.80
2022-12-15T18:49:50.114Z,-2.80
2022-12-15T18:52:22.821Z,-2.70
2022-12-15T18:54:51.675Z,-2.70
2022-12-15T18:57:29.811Z,-2.80
2022-12-15T19:00:24.610Z,-2.70
2022-12-15T19:02:56.709Z,-2.50
2022-12-15T19:05:28.991Z,-2.60
2022-12-15T19:08:10.151Z,-2.70
2022-12-15T19:10:42.235Z,-2.70
2022-12-15T19:13:14.343Z,-2.70
2022-12-15T19:15:41.576Z,-2.70
2022-12-15T19:18:35.890Z,-2.60
2022-12-15T19:21:39.188Z,-2.50
2022-12-15T19:24:46.018Z,-2.60
2022-12-15T19:27:16.073Z,-2.60
2022-12-15T19:29:45.026Z,-2.70
2022-12-15T19:32:12.340Z,-2.50
2022-12-15T19:34:39.533Z,-2.70
2022-12-15T19:37:11.692Z,-2.70
2022-12-15T19:39:38.717Z,-2.80
2022-12-15T19:42:11.611Z,-2.70
2022-12-15T19:44:40.064Z,-2.60
2022-12-15T19:47:14.682Z,-2.70
2022-12-15T19:49:43.362Z,-2.80
2022-12-15T19:52:15.056Z,-2.80
2022-12-15T19:54:43.325Z,-2.80
2022-12-15T19:57:15.534Z,-2.80
2022-12-15T19:59:46.837Z,-2.90
2022-12-15T20:02:21.312Z,-2.80
2022-12-15T20:04:49.000Z,-2.80
2022-12-15T20:07:28.586Z,-2.70
2022-12-15T20:09:56.268Z,-2.70
2022-12-15T20:12:23.187Z,-2.80
2022-12-15T20:14:50.134Z,-2.70
2022-12-15T20:17:17.215Z,-2.70
2022-12-15T20:19:44.301Z,-2.70
2022-12-15T20:22:16.794Z,-2.60
2022-12-15T20:24:45.618Z,-2.30
2022-12-15T20:27:18.461Z,-2.20
2022-12-15T20:29:48.795Z,-2.30
2022-12-15T20:32:19.493Z,-2.50
2022-12-15T20:34:47.349Z,-2.40
2022-12-15T20:37:30.376Z,-2.20
2022-12-15T20:39:58.032Z,-2.00
2022-12-15T20:42:25.336Z,-2.00
2022-12-15T20:44:52.283Z,-2.00
2022-12-15T20:47:24.659Z,-2.00
2022-12-15T20:49:54.097Z,-2.30
2022-12-15T20:52:23.964Z,-2.50
2022-12-15T20:54:52.092Z,-2.40
2022-12-15T20:57:19.111Z,-2.30
2022-12-15T20:59:46.163Z,-2.40
2022-12-15T21:02:21.793Z,-2.40
2022-12-15T21:04:49.958Z,-2.40
2022-12-15T21:07:17.014Z,-2.40
2022-12-15T21:09:43.995Z,-2.50
2022-12-15T21:12:27.590Z,-2.50
2022-12-15T21:14:55.215Z,-2.40
2022-12-15T21:17:28.371Z,-2.30
2022-12-15T21:19:55.507Z,-2.30
2022-12-15T21:22:28.340Z,-2.20
2022-12-15T21:24:57.546Z,-2.40
2022-12-15T21:27:24.865Z,-2.30
2022-12-15T21:29:52.863Z,-2.30
2022-12-15T21:32:20.975Z,-2.30
2022-12-15T21:34:47.874Z,-2.10
2022-12-15T21:37:27.314Z,-2.20
2022-12-15T21:39:54.848Z,-2.20
2022-12-15T21:42:21.998Z,-2.30
2022-12-15T21:44:49.011Z,-2.20
2022-12-15T21:47:47.321Z,-2.10
2022-12-15T21:50:15.322Z,-2.00
2022-12-15T21:52:42.444Z,-2.10
2022-12-15T21:55:17.862Z,-2.20
2022-12-15T21:57:45.101Z,-2.10
2022-12-15T22:00:14.179Z,-2.20
2022-12-15T22:02:42.136Z,-2.30
2022-12-15T22:05:16.080Z,-2.30
2022-12-15T22:07:43.222Z,-2.40
2022-12-15T22:10:10.205Z,-2.20
2022-12-15T22:12:38.263Z,-2.40
2022-12-15T22:15:14.066Z,-2.40
2022-12-15T22:17:40.903Z,-2.30
2022-12-15T22:20:14.999Z,-2.40
2022-12-15T22:22:42.158Z,-2.40
2022-12-15T22:25:19.231Z,-2.50
2022-12-15T22:27:46.607Z,-2.50
2022-12-15T22:30:39.785Z,-2.50
2022-12-15T22:33:19.137Z,-2.40
2022-12-15T22:35:48.528Z,-2.30
2022-12-15T22:38:15.869Z,-2.40
2022-12-15T22:40:43.664Z,-2.40
2022-12-15T22:43:18.633Z,-2.40
2022-12-15T22:45:47.261Z,-2.30
2022-12-15T22:48:15.615Z,-2.40
2022-12-15T22:50:42.547Z,-2.40
2022-12-15T22:53:14.790Z,-2.30
2022-12-15T22:55:43.888Z,-2.40
2022-12-15T22:58:15.928Z,-2.40
2022-12-15T23:00:43.501Z,-2.40
2022-12-15T23:03:11.974Z,-2.50
2022-12-15T23:05:41.946Z,-2.50
2022-12-15T23:08:09.315Z,-2.40
2022-12-15T23:10:54.584Z,-2.40
2022-12-15T23:13:21.697Z,-2.50
2022-12-15T23:16:08.169Z,-2.40
2022-12-15T23:18:35.490Z,-2.40
2022-12-15T23:21:02.858Z,-2.50
2022-12-15T23:23:32.703Z,-2.70
2022-12-15T23:25:59.842Z,-2.60
2022-12-15T23:28:27.565Z,-2.50
2022-12-15T23:30:55.922Z,-2.50
2022-12-15T23:33:23.519Z,-2.50
2022-12-15T23:35:52.557Z,-2.40
2022-12-15T23:38:22.339Z,-2.40
2022-12-15T23:40:52.853Z,-2.40
2022-12-15T23:43:20.811Z,-2.40
2022-12-15T23:46:02.872Z,-2.40
2022-12-15T23:48:32.054Z,-2.40
2022-12-15T23:51:12.500Z,-2.40
2022-12-15T23:53:40.643Z,-2.40
2022-12-15T23:56:12.849Z,-2.40
2022-12-15T23:58:41.238Z,-2.30
